Time;durP1;ratioP1;P1;durP2;ratioP2;P2;SDS_P1;SDS_P2;PMS_P1;PMS_P2;Temp;Humidity;BMP_temperature;BMP_pressure;BME280_temperature;BME280_humidity;BME280_pressure;Samples;Min_cycle;Max_cycle;Signal;HPM_P1;HPM_P2
2022/03/31 00:01:37;;;;;;;15.00;5.70;;;;;;;18.03;39.03;93584.22;5089203;28;20221;-77
2022/03/31 00:04:04;;;;;;;13.07;5.07;;;;;;;18.00;38.99;93589.84;5071508;28;20191;-76
2022/03/31 00:06:31;;;;;;;15.43;5.70;;;;;;;17.98;39.16;93598.78;5071721;28;20191;-80
2022/03/31 00:08:58;;;;;;;16.83;5.90;;;;;;;17.89;39.34;93564.63;5072042;28;20201;-78
2022/03/31 00:11:25;;;;;;;11.60;4.87;;;;;;;17.85;39.35;93554.91;5071260;28;20637;-79
2022/03/31 00:13:54;;;;;;;16.53;5.73;;;;;;;17.92;39.59;93547.88;5089918;28;20797;-78
2022/03/31 00:16:20;;;;;;;14.40;5.47;;;;;;;17.89;39.53;93577.56;5090335;28;20198;-81
2022/03/31 00:18:47;;;;;;;11.77;5.93;;;;;;;17.88;39.53;93607.03;5091603;28;20259;-80
2022/03/31 00:21:15;;;;;;;14.50;5.43;;;;;;;17.88;39.55;93594.09;5091322;28;20530;-77
2022/03/31 00:23:42;;;;;;;12.57;5.10;;;;;;;17.87;39.47;93579.56;5091792;28;20564;-82
2022/03/31 00:26:09;;;;;;;14.00;4.33;;;;;;;17.82;39.50;93558.72;5091301;28;20197;-79
2022/03/31 00:28:35;;;;;;;13.40;5.17;;;;;;;17.90;39.48;93580.94;5091476;28;20190;-80
2022/03/31 00:31:04;;;;;;;15.87;4.63;;;;;;;17.87;39.59;93566.63;5094503;28;20185;-76
2022/03/31 00:33:32;;;;;;;15.60;4.70;;;;;;;17.91;39.67;93570.38;5096224;28;20220;-80
2022/03/31 00:35:59;;;;;;;13.17;5.20;;;;;;;17.93;39.77;93567.59;5091963;28;20197;-79
2022/03/31 00:38:25;;;;;;;15.30;4.80;;;;;;;17.95;39.46;93524.19;5091648;28;20205;-77
2022/03/31 00:40:53;;;;;;;17.60;4.87;;;;;;;17.95;39.66;93534.53;5091294;28;20185;-77
2022/03/31 00:43:20;;;;;;;12.77;4.10;;;;;;;17.91;39.69;93536.75;5090914;28;20194;-76
2022/03/31 00:45:51;;;;;;;14.07;4.73;;;;;;;17.97;39.63;93548.84;5091428;28;20208;-76
2022/03/31 00:48:20;;;;;;;16.20;5.03;;;;;;;17.95;39.51;93537.13;5090895;28;20194;-77
2022/03/31 00:50:48;;;;;;;11.07;4.57;;;;;;;17.68;39.81;93515.81;5091585;28;20193;-75
2022/03/31 00:53:15;;;;;;;14.07;5.40;;;;;;;17.97;39.82;93548.84;5090232;28;20225;-78
2022/03/31 00:55:45;;;;;;;11.10;4.40;;;;;;;18.00;39.67;93558.78;5090742;28;20440;-79
2022/03/31 00:58:12;;;;;;;19.57;5.07;;;;;;;18.02;39.98;93546.44;5091464;28;20208;-77
2022/03/31 01:00:39;;;;;;;16.23;5.33;;;;;;;18.01;40.14;93557.00;5091239;28;20189;-77
2022/03/31 01:03:05;;;;;;;14.60;4.93;;;;;;;17.99;40.24;93549.44;5090675;28;20181;-76
2022/03/31 01:05:37;;;;;;;18.67;5.00;;;;;;;18.02;40.22;93545.63;5090479;28;20276;-77
2022/03/31 01:08:05;;;;;;;12.83;4.73;;;;;;;18.02;40.16;93532.69;5090831;28;20190;-75
2022/03/31 01:10:31;;;;;;;22.23;4.97;;;;;;;18.00;40.36;93525.16;5091463;28;20192;-77
2022/03/31 01:12:59;;;;;;;23.27;5.77;;;;;;;17.99;40.36;93505.44;5091126;28;20200;-77
2022/03/31 01:15:26;;;;;;;13.00;4.30;;;;;;;18.01;40.21;93500.09;5089264;28;20783;-77
2022/03/31 01:17:53;;;;;;;21.00;4.57;;;;;;;18.05;40.46;93522.72;5090548;28;20217;-76
2022/03/31 01:20:21;;;;;;;19.00;4.60;;;;;;;18.03;40.64;93519.53;5090436;28;20318;-75
2022/03/31 01:22:53;;;;;;;16.60;4.53;;;;;;;18.05;40.70;93516.75;5090827;28;20189;-79
2022/03/31 01:25:21;;;;;;;11.87;5.00;;;;;;;18.06;40.86;93528.69;5090425;28;20213;-80
2022/03/31 01:27:49;;;;;;;12.90;4.97;;;;;;;18.08;41.00;93544.00;5091049;28;20181;-81
2022/03/31 01:30:20;;;;;;;12.90;4.90;;;;;;;18.08;41.13;93523.28;5090208;28;20198;-77
2022/03/31 01:32:47;;;;;;;12.07;4.13;;;;;;;18.08;41.18;93511.16;5090165;28;20189;-79
2022/03/31 01:35:15;;;;;;;15.80;4.83;;;;;;;18.09;41.15;93528.28;5090174;28;20217;-81
2022/03/31 01:37:42;;;;;;;17.10;5.17;;;;;;;18.04;41.21;93507.41;5090206;28;20629;-81
2022/03/31 01:40:09;;;;;;;11.20;4.43;;;;;;;18.08;41.30;93525.88;5090105;28;20602;-81
2022/03/31 01:42:38;;;;;;;14.37;4.63;;;;;;;18.08;41.59;93493.03;5090903;28;20186;-79
2022/03/31 01:45:07;;;;;;;16.03;5.17;;;;;;;18.08;41.85;93512.94;5090244;28;20190;-78
2022/03/31 01:47:34;;;;;;;16.77;4.97;;;;;;;18.01;42.02;93529.31;5090351;28;20189;-81
2022/03/31 01:50:01;;;;;;;15.03;3.80;;;;;;;18.03;41.81;93529.09;5090318;28;20181;-78
2022/03/31 01:52:28;;;;;;;16.50;4.70;;;;;;;18.01;41.56;93531.91;5090024;28;20318;-79
2022/03/31 01:54:55;;;;;;;18.63;4.60;;;;;;;17.97;41.77;93510.06;5089920;28;20210;-82
2022/03/31 01:57:22;;;;;;;16.30;5.23;;;;;;;18.01;41.91;93537.09;5089909;28;20182;-86
2022/03/31 01:59:51;;;;;;;19.80;5.93;;;;;;;18.00;41.67;93527.75;5089844;28;20682;-80
2022/03/31 02:02:17;;;;;;;14.87;4.00;;;;;;;17.98;41.79;93509.03;5089737;28;20189;-81
2022/03/31 02:04:45;;;;;;;20.10;5.07;;;;;;;17.89;41.86;93512.13;5090050;28;20190;-81
2022/03/31 02:07:12;;;;;;;15.60;4.60;;;;;;;17.96;41.83;93529.19;5089691;28;20209;-81
2022/03/31 02:09:39;;;;;;;16.00;5.37;;;;;;;17.92;42.02;93494.38;5089620;28;20189;-81
2022/03/31 02:12:07;;;;;;;17.80;6.17;;;;;;;17.84;41.76;93501.63;5090277;28;20189;-77
2022/03/31 02:14:37;;;;;;;24.43;5.87;;;;;;;17.89;41.73;93512.13;5089909;28;20312;-81
2022/03/31 02:17:05;;;;;;;16.93;5.47;;;;;;;17.89;41.93;93502.56;5089909;28;20189;-86
2022/03/31 02:19:32;;;;;;;18.27;5.20;;;;;;;17.84;42.33;93496.44;5089549;28;20678;-79
2022/03/31 02:21:59;;;;;;;18.53;5.17;;;;;;;17.89;42.09;93497.38;5089674;28;20196;-82
2022/03/31 02:24:26;;;;;;;15.53;5.07;;;;;;;17.89;42.00;93487.03;5090276;28;20194;-84
2022/03/31 02:26:54;;;;;;;11.03;4.90;;;;;;;17.77;42.06;93479.16;5092584;28;20178;-84
2022/03/31 02:29:21;;;;;;;16.87;4.93;;;;;;;17.84;41.91;93506.78;5093463;28;20185;-77
2022/03/31 02:31:47;;;;;;;22.10;6.27;;;;;;;17.77;42.13;93489.50;5093722;28;20189;-76
2022/03/31 02:34:16;;;;;;;16.13;6.13;;;;;;;17.80;42.01;93496.06;5094215;28;20190;-81
2022/03/31 02:36:43;;;;;;;20.83;5.30;;;;;;;17.80;41.83;93502.03;5094163;28;20204;-81
2022/03/31 02:39:12;;;;;;;16.20;6.13;;;;;;;17.78;41.75;93496.25;5094261;28;20185;-77
2022/03/31 02:41:40;;;;;;;14.93;5.03;;;;;;;17.77;41.89;93486.94;5093504;28;20228;-79
2022/03/31 02:44:08;;;;;;;15.73;5.73;;;;;;;17.76;41.87;93490.53;5093950;28;20200;-75
2022/03/31 02:46:34;;;;;;;11.43;4.53;;;;;;;17.65;42.00;93482.63;5093622;28;20220;-76
2022/03/31 02:49:02;;;;;;;15.93;5.07;;;;;;;17.75;41.84;93477.81;5093430;28;20516;-77
2022/03/31 02:51:30;;;;;;;11.17;5.57;;;;;;;17.66;41.97;93469.50;5093247;28;20185;-76
2022/03/31 02:56:41;;;;;;;14.33;5.97;;;;;;;17.67;41.82;93475.47;5093512;28;20776;-76
2022/03/31 02:59:08;;;;;;;17.43;5.37;;;;;;;17.63;41.77;93482.06;5093312;28;20640;-80
2022/03/31 03:01:35;;;;;;;15.53;5.23;;;;;;;17.52;41.73;93483.50;5092953;28;20236;-78
2022/03/31 03:04:02;;;;;;;15.53;5.37;;;;;;;17.59;41.85;93489.44;5093502;28;20236;-81
2022/03/31 03:06:30;;;;;;;16.43;5.17;;;;;;;17.55;41.86;93486.47;5092963;28;20197;-78
2022/03/31 03:08:57;;;;;;;16.07;5.63;;;;;;;17.53;41.91;93482.53;5092975;28;20201;-76
2022/03/31 03:11:24;;;;;;;19.93;5.43;;;;;;;17.52;41.74;93480.91;5092946;28;20262;-77
2022/03/31 03:13:51;;;;;;;20.43;5.07;;;;;;;17.49;42.12;93495.06;5092867;28;20192;-77
2022/03/31 03:16:18;;;;;;;23.90;7.17;;;;;;;17.41;41.87;93486.78;5092461;28;20217;-78
2022/03/31 03:18:45;;;;;;;13.43;5.57;;;;;;;17.44;41.86;93500.09;5092518;28;20204;-79
2022/03/31 03:21:12;;;;;;;15.20;5.23;;;;;;;17.40;41.88;93495.50;5092810;28;20235;-76
2022/03/31 03:23:41;;;;;;;20.67;5.33;;;;;;;17.35;41.91;93500.53;5092747;28;20184;-76
2022/03/31 03:26:08;;;;;;;12.07;4.50;;;;;;;17.33;41.86;93461.19;5092839;28;20189;-78
2022/03/31 03:28:36;;;;;;;14.40;5.63;;;;;;;17.28;41.74;93466.97;5091894;28;20193;-78
2022/03/31 03:31:04;;;;;;;18.73;5.30;;;;;;;17.16;42.08;93458.31;5092607;28;20225;-75
2022/03/31 03:33:31;;;;;;;10.10;4.53;;;;;;;17.14;42.06;93462.88;5093209;28;20251;-76
2022/03/31 03:35:57;;;;;;;9.57;5.23;;;;;;;17.26;42.14;93474.13;5093854;28;20229;-76
2022/03/31 03:38:24;;;;;;;13.90;4.93;;;;;;;17.24;42.12;93465.81;5092142;28;20189;-75
2022/03/31 03:40:53;;;;;;;16.20;5.47;;;;;;;17.24;42.09;93460.66;5092144;28;20665;-77
2022/03/31 03:43:20;;;;;;;13.03;5.27;;;;;;;17.22;42.30;93460.06;5092167;28;20189;-79
2022/03/31 03:45:47;;;;;;;17.30;5.30;;;;;;;17.16;42.31;93466.84;5091957;28;20280;-79
2022/03/31 03:48:14;;;;;;;12.60;5.87;;;;;;;17.09;42.25;93460.91;5092309;28;20189;-77
2022/03/31 03:50:41;;;;;;;15.80;5.37;;;;;;;17.11;42.20;93463.31;5090985;28;20706;-78
2022/03/31 03:53:09;;;;;;;16.17;6.07;;;;;;;17.10;42.60;93454.78;5091963;28;20221;-78
2022/03/31 03:55:37;;;;;;;12.93;5.67;;;;;;;17.08;42.40;93454.19;5091500;28;20419;-77
2022/03/31 03:58:06;;;;;;;10.40;5.27;;;;;;;17.07;42.55;93467.31;5092060;28;20186;-83
2022/03/31 04:00:33;;;;;;;12.53;5.13;;;;;;;17.04;42.51;93463.34;5091941;28;20190;-80
2022/03/31 04:03:00;;;;;;;10.73;4.50;;;;;;;17.01;42.45;93461.97;5092310;28;20193;-85
2022/03/31 04:05:27;;;;;;;14.80;5.47;;;;;;;17.00;42.64;93475.88;5091363;28;20251;-78
2022/03/31 04:07:54;;;;;;;18.73;5.43;;;;;;;17.00;42.46;93462.97;5092087;28;20667;-83
2022/03/31 04:10:21;;;;;;;18.70;5.50;;;;;;;16.99;42.53;93471.72;5091951;28;20190;-77
2022/03/31 04:12:48;;;;;;;16.23;5.90;;;;;;;16.98;42.52;93497.75;5091419;28;20200;-75
2022/03/31 04:15:17;;;;;;;10.33;5.33;;;;;;;16.95;42.45;93483.44;5091571;28;20213;-79
2022/03/31 04:17:44;;;;;;;19.77;5.63;;;;;;;16.99;42.29;93466.53;5091586;28;20189;-77
2022/03/31 04:20:13;;;;;;;18.73;4.63;;;;;;;16.97;42.53;93480.69;5091742;28;20190;-78
2022/03/31 04:22:41;;;;;;;20.53;5.63;;;;;;;16.96;42.68;93451.47;5091788;28;20615;-76
2022/03/31 04:25:10;;;;;;;8.80;5.20;;;;;;;16.89;42.66;93484.28;5091803;28;20275;-81
2022/03/31 04:27:39;;;;;;;18.50;6.77;;;;;;;16.87;42.87;93496.59;5091096;28;20186;-81
2022/03/31 04:30:08;;;;;;;18.27;5.20;;;;;;;16.79;42.94;93473.59;5091332;28;20549;-78
2022/03/31 04:32:36;;;;;;;12.77;5.37;;;;;;;16.75;43.36;93514.53;5091004;28;20200;-79
2022/03/31 04:35:03;;;;;;;15.57;5.73;;;;;;;16.78;43.09;93514.09;5091378;28;20201;-80
2022/03/31 04:37:30;;;;;;;10.83;5.70;;;;;;;16.77;43.15;93502.19;5091147;28;20193;-79
2022/03/31 04:39:57;;;;;;;14.67;5.37;;;;;;;16.77;43.30;93502.19;5091425;28;20292;-88
2022/03/31 04:42:25;;;;;;;13.93;5.40;;;;;;;16.28;43.32;93420.19;5091607;28;20178;-78
2022/03/31 04:44:51;;;;;;;16.50;6.20;;;;;;;16.40;43.40;93430.63;5090941;28;20256;-79
2022/03/31 04:47:18;;;;;;;13.33;5.43;;;;;;;16.45;43.67;93446.28;5090471;28;20217;-80
2022/03/31 04:49:47;;;;;;;16.50;5.87;;;;;;;16.67;43.65;93478.59;5091314;28;20182;-83
2022/03/31 04:52:14;;;;;;;17.03;5.77;;;;;;;16.69;43.88;93507.56;5090900;28;20222;-77
2022/03/31 04:54:43;;;;;;;11.63;5.83;;;;;;;16.71;43.84;93473.78;5091591;28;20182;-79
2022/03/31 04:57:11;;;;;;;13.80;5.53;;;;;;;16.72;44.12;93520.09;5090847;28;20216;-81
2022/03/31 04:59:38;;;;;;;15.50;5.33;;;;;;;16.73;44.16;93484.75;5091140;28;20667;-77
2022/03/31 05:02:05;;;;;;;18.43;6.70;;;;;;;16.74;44.38;93489.69;5091070;28;20185;-79
2022/03/31 05:04:32;;;;;;;14.07;5.10;;;;;;;16.77;44.45;93465.28;5090985;28;20182;-78
2022/03/31 05:07:00;;;;;;;15.10;5.50;;;;;;;16.71;44.29;93473.78;5090392;28;20879;-74
2022/03/31 05:09:27;;;;;;;9.63;5.53;;;;;;;16.76;44.40;93466.28;5090673;28;20186;-75
2022/03/31 05:11:55;;;;;;;18.47;6.63;;;;;;;16.83;44.65;93477.34;5090969;28;20567;-75
2022/03/31 05:14:22;;;;;;;13.80;4.93;;;;;;;16.84;44.98;93486.69;5090960;28;20189;-78
2022/03/31 05:16:49;;;;;;;17.33;5.90;;;;;;;16.83;45.04;93468.81;5089910;28;20239;-79
2022/03/31 05:19:16;;;;;;;16.53;5.97;;;;;;;16.79;45.23;93455.50;5090961;28;20181;-74
2022/03/31 05:21:43;;;;;;;15.90;5.87;;;;;;;16.78;44.97;93470.22;5090690;28;20692;-74
2022/03/31 05:24:11;;;;;;;21.50;6.47;;;;;;;16.86;45.28;93510.50;5090357;28;20689;-75
2022/03/31 05:26:38;;;;;;;19.00;6.93;;;;;;;16.84;45.30;93494.44;5090579;28;20198;-76
2022/03/31 05:29:05;;;;;;;17.83;6.60;;;;;;;16.91;45.34;93527.97;5090305;28;20262;-76
2022/03/31 05:31:32;;;;;;;18.77;5.53;;;;;;;16.92;45.47;93519.22;5090007;28;20212;-78
2022/03/31 05:33:58;;;;;;;13.83;5.80;;;;;;;16.93;45.46;93518.25;5090446;28;20189;-78
2022/03/31 05:36:25;;;;;;;16.80;5.37;;;;;;;16.96;45.82;93526.34;5090163;28;20228;-78
2022/03/31 05:38:52;;;;;;;18.97;6.47;;;;;;;16.98;45.87;93526.16;5089931;28;20190;-78
2022/03/31 05:41:20;;;;;;;19.80;5.90;;;;;;;17.02;45.83;93530.72;5090534;28;20243;-78
2022/03/31 05:43:47;;;;;;;16.77;6.37;;;;;;;17.00;46.13;93532.69;5090426;28;20185;-77
2022/03/31 05:46:14;;;;;;;19.13;6.60;;;;;;;17.08;46.18;93538.63;5090561;28;20182;-77
2022/03/31 05:48:41;;;;;;;21.93;5.63;;;;;;;17.11;46.60;93527.91;5090152;28;20189;-76
2022/03/31 05:51:08;;;;;;;19.43;5.93;;;;;;;17.08;46.62;93500.69;5089898;28;20660;-78
2022/03/31 05:53:35;;;;;;;20.57;5.83;;;;;;;17.12;46.90;93501.84;5089665;28;20739;-77
2022/03/31 05:56:01;;;;;;;25.10;6.10;;;;;;;17.16;46.98;93492.69;5090133;28;20244;-74
2022/03/31 05:58:29;;;;;;;18.63;6.47;;;;;;;17.22;47.22;93491.06;5090147;28;20563;-77
2022/03/31 06:00:57;;;;;;;18.53;5.57;;;;;;;17.23;47.41;93493.44;5089407;28;20189;-77
2022/03/31 06:03:24;;;;;;;18.37;6.40;;;;;;;17.25;47.73;93477.72;5089799;28;20190;-78
2022/03/31 06:05:51;;;;;;;19.03;6.40;;;;;;;17.30;47.94;93470.13;5089565;28;20194;-76
2022/03/31 06:08:18;;;;;;;14.53;5.90;;;;;;;17.34;47.94;93471.31;5089825;28;20185;-78
2022/03/31 06:10:45;;;;;;;19.83;6.30;;;;;;;17.39;47.78;93458.53;5090025;28;20186;-74
2022/03/31 06:13:13;;;;;;;23.60;6.40;;;;;;;17.45;47.57;93455.13;5089536;28;20691;-75
2022/03/31 06:15:42;;;;;;;20.30;6.60;;;;;;;17.51;47.58;93451.69;5089652;28;20217;-78
2022/03/31 06:18:09;;;;;;;22.37;7.00;;;;;;;17.58;47.73;93449.09;5089790;28;20193;-74
2022/03/31 06:20:36;;;;;;;23.50;5.57;;;;;;;17.66;47.80;93463.50;5089713;28;20535;-76
2022/03/31 06:23:03;;;;;;;31.50;7.20;;;;;;;17.70;47.74;93455.16;5089649;28;20188;-76
2022/03/31 06:25:30;;;;;;;23.33;6.97;;;;;;;17.70;47.87;93473.25;5089912;28;20576;-77
2022/03/31 06:27:58;;;;;;;31.27;6.60;;;;;;;17.78;47.96;93485.91;5089500;28;20672;-75
2022/03/31 06:30:24;;;;;;;19.33;5.90;;;;;;;17.84;47.96;93483.50;5089675;28;20194;-75
2022/03/31 06:32:53;;;;;;;19.07;5.70;;;;;;;17.85;48.30;93501.41;5089302;28;20197;-75
2022/03/31 06:35:20;;;;;;;18.93;6.10;;;;;;;17.88;48.05;93500.97;5089543;28;20189;-72
2022/03/31 06:37:48;;;;;;;24.77;6.57;;;;;;;17.90;48.16;93496.38;5083330;28;20786;-76
2022/03/31 06:40:17;;;;;;;26.30;6.50;;;;;;;18.01;48.05;93515.59;5089188;28;20208;-79
2022/03/31 06:42:45;;;;;;;25.40;7.00;;;;;;;18.05;48.39;93542.63;5089483;28;20695;-81
2022/03/31 06:45:15;;;;;;;24.50;6.17;;;;;;;18.11;48.28;93528.84;5089623;28;20185;-78
2022/03/31 06:47:42;;;;;;;25.00;6.10;;;;;;;18.16;48.38;93500.53;5088943;28;20202;-75
2022/03/31 06:50:13;;;;;;;28.40;7.53;;;;;;;18.20;48.32;93516.41;5089371;28;20186;-74
2022/03/31 06:52:39;;;;;;;22.30;7.37;;;;;;;18.27;48.11;93496.47;5086035;28;20229;-74
2022/03/31 06:55:08;;;;;;;25.33;6.80;;;;;;;18.33;47.83;93492.22;5088153;28;20691;-74
2022/03/31 06:57:35;;;;;;;16.87;6.40;;;;;;;18.38;47.65;93506.09;5088447;28;20915;-73
2022/03/31 07:00:02;;;;;;;25.90;8.30;;;;;;;18.50;47.68;93475.09;5087252;28;20225;-75
2022/03/31 07:02:29;;;;;;;28.70;8.57;;;;;;;18.56;47.07;93500.13;5088506;28;20733;-73
2022/03/31 07:04:56;;;;;;;23.03;7.87;;;;;;;18.63;47.45;93484.53;5088131;28;20204;-77
2022/03/31 07:07:24;;;;;;;29.50;7.80;;;;;;;18.62;47.28;93491.50;5088236;28;20190;-74
2022/03/31 07:09:52;;;;;;;31.00;7.33;;;;;;;18.73;46.96;93508.13;5088060;28;20203;-77
2022/03/31 07:12:19;;;;;;;28.90;8.37;;;;;;;18.81;46.99;93507.84;5085796;28;20225;-77
2022/03/31 07:14:46;;;;;;;29.93;6.90;;;;;;;18.89;47.20;93502.38;5091687;28;20258;-72
2022/03/31 07:17:12;;;;;;;31.00;6.60;;;;;;;18.97;46.79;93501.28;5092168;28;20229;-72
2022/03/31 07:19:39;;;;;;;24.73;6.67;;;;;;;19.03;46.75;93503.00;5090653;28;20563;-76
2022/03/31 07:22:06;;;;;;;20.13;6.63;;;;;;;19.03;46.33;93488.25;5092358;28;20290;-76
2022/03/31 07:24:34;;;;;;;27.03;7.00;;;;;;;19.22;46.25;93480.44;5091320;28;20182;-74
2022/03/31 07:27:01;;;;;;;20.30;6.80;;;;;;;19.32;45.97;93456.56;5091719;28;20185;-74
2022/03/31 07:29:28;;;;;;;17.90;5.63;;;;;;;19.42;45.92;93467.19;5091039;28;20193;-73
2022/03/31 07:31:55;;;;;;;23.50;6.90;;;;;;;19.52;45.86;93470.03;5091451;28;20192;-78
2022/03/31 07:34:22;;;;;;;27.93;6.37;;;;;;;19.63;45.61;93479.66;5091538;28;20181;-73
2022/03/31 07:36:49;;;;;;;26.07;6.87;;;;;;;19.72;45.49;93467.94;5090748;28;20209;-73
2022/03/31 07:39:16;;;;;;;28.60;7.67;;;;;;;19.83;45.25;93487.16;5091245;28;20198;-76
2022/03/31 07:41:44;;;;;;;19.70;7.33;;;;;;;19.92;45.12;93488.41;5090641;28;20204;-72
2022/03/31 07:44:11;;;;;;;25.10;6.37;;;;;;;20.01;45.13;93484.44;5091502;28;20198;-75
2022/03/31 07:46:38;;;;;;;24.73;7.10;;;;;;;20.11;45.08;93488.28;5090986;28;20200;-78
2022/03/31 07:49:04;;;;;;;23.57;6.90;;;;;;;20.16;44.82;93452.84;5091595;28;20196;-73
2022/03/31 07:51:31;;;;;;;22.27;6.80;;;;;;;20.24;44.75;93451.72;5091451;28;20196;-77
2022/03/31 07:53:58;;;;;;;14.53;5.70;;;;;;;20.25;44.37;93479.25;5091597;28;20233;-76
2022/03/31 07:56:25;;;;;;;19.13;6.30;;;;;;;20.37;44.37;93502.59;5090859;28;20224;-78
2022/03/31 07:58:53;;;;;;;30.63;7.83;;;;;;;20.45;44.39;93484.09;5091218;28;20197;-74
2022/03/31 08:01:20;;;;;;;27.27;7.83;;;;;;;20.47;44.23;93493.25;5091117;28;20202;-73
2022/03/31 08:03:47;;;;;;;27.47;7.47;;;;;;;20.60;44.20;93473.28;5091123;28;20201;-75
2022/03/31 08:06:14;;;;;;;24.33;6.87;;;;;;;20.73;44.01;93460.81;5091151;28;20270;-74
2022/03/31 08:08:40;;;;;;;24.17;7.27;;;;;;;20.84;43.91;93430.59;5090970;28;20185;-73
2022/03/31 08:11:08;;;;;;;18.33;6.43;;;;;;;20.94;43.91;93456.78;5091162;28;20204;-77
2022/03/31 08:13:35;;;;;;;24.77;7.60;;;;;;;21.05;43.66;93471.53;5090994;28;20197;-74
2022/03/31 08:16:04;;;;;;;22.47;7.10;;;;;;;21.15;43.35;93429.31;5090636;28;20247;-73
2022/03/31 08:18:33;;;;;;;27.77;6.77;;;;;;;21.21;43.34;93451.81;5090760;28;20205;-75
2022/03/31 08:21:00;;;;;;;23.07;6.63;;;;;;;21.19;43.28;93437.47;5091165;28;20197;-74
2022/03/31 08:23:27;;;;;;;20.80;6.70;;;;;;;21.33;43.13;93446.59;5090327;28;20224;-75
2022/03/31 08:25:55;;;;;;;22.83;6.03;;;;;;;21.37;42.84;93432.06;5090962;28;20235;-75
2022/03/31 08:28:22;;;;;;;31.77;6.73;;;;;;;21.45;42.79;93420.50;5090284;28;20201;-75
2022/03/31 08:30:49;;;;;;;35.57;6.87;;;;;;;21.58;42.57;93446.19;5090609;28;20587;-76
2022/03/31 08:33:17;;;;;;;20.13;6.33;;;;;;;21.67;42.37;93412.78;5089994;28;20262;-75
2022/03/31 08:35:44;;;;;;;22.20;5.93;;;;;;;21.77;42.19;93392.91;5090004;28;20197;-77
2022/03/31 08:38:12;;;;;;;26.88;6.43;;;;;;;21.89;41.99;93410.22;5090418;28;20221;-75
2022/03/31 08:40:39;;;;;;;16.10;5.45;;;;;;;22.01;41.86;93422.13;5090282;28;20679;-78
2022/03/31 08:43:07;;;;;;;19.77;6.10;;;;;;;22.16;41.71;93416.38;5089824;28;20193;-76
2022/03/31 08:45:36;;;;;;;19.93;6.37;;;;;;;22.25;41.25;93422.75;5090302;28;20190;-75
2022/03/31 08:48:04;;;;;;;24.77;6.25;;;;;;;22.36;41.20;93396.81;5089923;28;20726;-75
2022/03/31 08:50:35;;;;;;;20.65;6.15;;;;;;;22.44;40.89;93425.06;5089809;28;20182;-76
2022/03/31 08:53:01;;;;;;;23.52;7.13;;;;;;;22.54;40.77;93433.03;5090202;28;20260;-75
2022/03/31 08:55:28;;;;;;;20.00;7.03;;;;;;;22.61;40.62;93427.63;5089211;28;20194;-74
2022/03/31 08:57:55;;;;;;;19.45;6.35;;;;;;;22.65;40.35;93431.31;5089441;28;20217;-74
2022/03/31 09:00:23;;;;;;;15.80;5.85;;;;;;;22.80;40.17;93410.63;5089301;28;20272;-77
2022/03/31 09:02:56;;;;;;;24.30;6.60;;;;;;;22.90;40.09;93423.03;5086792;28;20208;-80
2022/03/31 09:05:23;;;;;;;22.17;5.85;;;;;;;22.98;39.88;93412.94;5089568;28;20193;-76
2022/03/31 09:07:55;;;;;;;21.48;5.65;;;;;;;23.11;39.68;93416.97;5089546;28;20243;-75
2022/03/31 09:10:30;;;;;;;16.65;5.13;;;;;;;23.21;39.41;93409.25;5089483;28;20193;-76
2022/03/31 09:12:58;;;;;;;19.90;4.70;;;;;;;23.32;39.00;93419.78;5089726;28;20221;-74
2022/03/31 09:15:25;;;;;;;24.55;5.97;;;;;;;23.40;38.92;93408.88;5089505;28;20576;-74
2022/03/31 09:17:56;;;;;;;18.65;5.07;;;;;;;23.46;38.82;93416.50;5089495;28;20213;-75
2022/03/31 09:20:23;;;;;;;16.73;4.53;;;;;;;23.54;38.72;93423.09;5089456;28;20197;-74
2022/03/31 09:22:51;;;;;;;16.00;4.75;;;;;;;23.58;38.67;93412.97;5087021;28;20615;-75
2022/03/31 09:25:27;;;;;;;19.90;5.13;;;;;;;23.58;38.25;93424.19;5089675;28;20194;-73
2022/03/31 09:27:55;;;;;;;21.30;4.22;;;;;;;23.60;38.42;93379.56;5089136;28;20271;-74
2022/03/31 09:30:24;;;;;;;17.85;4.85;;;;;;;23.62;38.15;93399.16;5089378;28;20624;-75
2022/03/31 09:32:52;;;;;;;17.88;4.95;;;;;;;23.66;38.24;93399.44;5089089;28;20580;-74
2022/03/31 09:35:23;;;;;;;19.25;4.88;;;;;;;23.71;38.01;93370.81;5088733;28;20186;-74
2022/03/31 09:37:51;;;;;;;18.35;5.30;;;;;;;23.78;38.17;93374.75;5089273;28;20692;-75
2022/03/31 09:40:20;;;;;;;18.73;4.50;;;;;;;23.86;37.80;93386.53;5089064;28;20194;-73
2022/03/31 09:42:59;;;;;;;18.27;3.85;;;;;;;23.99;38.08;93362.59;5089280;28;20189;-74
2022/03/31 09:45:37;;;;;;;24.83;5.55;;;;;;;24.09;37.93;93359.25;5087875;28;20546;-74
2022/03/31 09:48:04;;;;;;;24.77;5.45;;;;;;;24.20;37.65;93367.94;5088954;28;20181;-74
2022/03/31 09:50:33;;;;;;;26.17;5.30;;;;;;;24.29;37.90;93356.72;5089185;28;20197;-74
2022/03/31 09:53:01;;;;;;;21.45;5.50;;;;;;;24.37;37.62;93346.84;5086000;28;22374;-74
2022/03/31 09:55:28;;;;;;;16.52;5.18;;;;;;;24.47;37.45;93375.66;5088222;28;20574;-75
2022/03/31 09:57:58;;;;;;;22.25;4.95;;;;;;;24.55;37.07;93340.41;5086545;28;20209;-74
2022/03/31 10:00:25;;;;;;;19.80;5.20;;;;;;;24.63;37.06;93363.44;5089104;28;20201;-74
2022/03/31 10:02:52;;;;;;;19.67;4.63;;;;;;;24.74;37.04;93365.81;5088784;28;20221;-74
2022/03/31 10:05:20;;;;;;;21.63;4.93;;;;;;;24.83;36.64;93337.34;5088719;28;20190;-75
2022/03/31 10:07:48;;;;;;;13.32;4.47;;;;;;;24.90;36.66;93331.84;5088845;28;20198;-75
2022/03/31 10:10:15;;;;;;;21.27;3.95;;;;;;;25.10;36.52;93344.19;5088389;28;20250;-74
2022/03/31 10:12:49;;;;;;;19.70;4.85;;;;;;;25.26;36.31;93345.78;5089546;28;20189;-74
2022/03/31 10:15:24;;;;;;;18.23;4.60;;;;;;;25.40;36.14;93340.81;5088780;28;20213;-74
2022/03/31 10:17:51;;;;;;;20.55;5.00;;;;;;;25.52;35.77;93357.81;5088242;28;20220;-73
2022/03/31 10:20:20;;;;;;;25.13;4.32;;;;;;;25.59;36.02;93333.19;5088287;28;20606;-74
2022/03/31 10:25:42;;;;;;;23.55;4.57;;;;;;;25.66;35.65;93331.88;5086879;28;20613;-75
2022/03/31 10:28:11;;;;;;;26.58;5.07;;;;;;;25.69;35.62;93344.44;5088664;28;20197;-75
2022/03/31 10:30:40;;;;;;;21.70;5.82;;;;;;;25.73;35.39;93332.41;5088227;28;20579;-75
2022/03/31 10:33:09;;;;;;;20.75;5.10;;;;;;;25.75;35.21;93316.41;5088440;28;20204;-74
2022/03/31 10:35:38;;;;;;;23.85;5.63;;;;;;;25.81;35.35;93323.22;5086679;28;20185;-74
2022/03/31 10:38:15;;;;;;;21.40;4.85;;;;;;;25.89;34.97;93327.94;5085086;28;20209;-74
2022/03/31 10:40:45;;;;;;;18.02;4.35;;;;;;;25.97;35.31;93322.16;5085961;28;20190;-74
2022/03/31 10:43:23;;;;;;;21.40;4.65;;;;;;;26.07;34.94;93320.53;5088555;28;20197;-74
2022/03/31 10:45:54;;;;;;;18.83;5.00;;;;;;;26.15;35.21;93320.78;5087693;28;20269;-75
2022/03/31 10:48:23;;;;;;;22.45;5.50;;;;;;;26.19;34.99;93303.47;5091799;28;20205;-74
2022/03/31 10:51:04;;;;;;;17.75;4.95;;;;;;;26.20;35.08;93296.38;5092538;28;20189;-75
2022/03/31 10:53:32;;;;;;;19.48;5.47;;;;;;;26.24;34.74;93323.63;5091773;28;20229;-74
2022/03/31 10:56:01;;;;;;;25.40;5.15;;;;;;;26.23;34.97;93307.13;5092239;28;20198;-75
2022/03/31 10:58:30;;;;;;;18.40;5.65;;;;;;;26.24;34.84;93272.00;5091529;28;20213;-73
2022/03/31 11:01:02;;;;;;;26.95;5.93;;;;;;;26.24;34.74;93327.03;5089229;28;20194;-75
2022/03/31 11:03:29;;;;;;;25.38;5.32;;;;;;;26.34;34.50;93320.97;5091843;28;20293;-74
2022/03/31 11:05:59;;;;;;;23.33;6.15;;;;;;;26.41;34.39;93312.81;5089319;28;20657;-75
2022/03/31 11:08:26;;;;;;;19.45;5.32;;;;;;;26.48;34.78;93327.22;5092593;28;20886;-77
2022/03/31 11:10:55;;;;;;;16.98;5.53;;;;;;;26.57;34.12;93310.94;5091332;28;20248;-75
2022/03/31 11:13:32;;;;;;;19.45;5.32;;;;;;;26.62;34.35;93293.31;5091343;28;20208;-74
2022/03/31 11:16:01;;;;;;;16.90;4.50;;;;;;;26.73;34.15;93296.69;5092071;28;20197;-74
2022/03/31 11:18:27;;;;;;;18.17;4.72;;;;;;;26.77;34.41;93323.94;5091810;28;20229;-74
2022/03/31 11:20:57;;;;;;;18.80;5.65;;;;;;;26.78;33.92;93294.03;5091806;28;20196;-73
2022/03/31 11:23:26;;;;;;;28.13;4.57;;;;;;;26.76;33.96;93315.25;5091861;28;20194;-74
2022/03/31 11:25:53;;;;;;;20.00;5.50;;;;;;;26.75;33.91;93299.81;5091486;28;20189;-75
2022/03/31 11:28:20;;;;;;;21.58;4.95;;;;;;;26.79;34.15;93294.81;5091857;28;20189;-74
2022/03/31 11:30:49;;;;;;;14.35;5.00;;;;;;;26.79;33.65;93298.22;5091473;28;20193;-74
2022/03/31 11:33:18;;;;;;;14.85;4.93;;;;;;;26.76;33.90;93281.16;5091882;28;20657;-74